createdAt,value
2023-01-07T00:01:58.796Z,32.50
2023-01-07T00:04:25.598Z,32.50
2023-01-07T00:06:52.557Z,33.20
2023-01-07T00:09:19.402Z,32.03
2023-01-07T00:11:46.164Z,31.73
2023-01-07T00:14:14.080Z,31.13
2023-01-07T00:16:43.244Z,31.40
2023-01-07T00:19:13.882Z,31.17
2023-01-07T00:21:41.446Z,32.53
2023-01-07T00:24:11.143Z,31.52
2023-01-07T00:26:38.804Z,30.05
2023-01-07T00:29:06.665Z,29.98
2023-01-07T00:31:35.622Z,29.98
2023-01-07T00:34:04.799Z,28.17
2023-01-07T00:36:33.898Z,27.77
2023-01-07T00:39:02.801Z,27.88
2023-01-07T00:41:29.514Z,28.80
2023-01-07T00:43:56.783Z,27.17
2023-01-07T00:46:24.109Z,27.58
2023-01-07T00:48:51.114Z,28.42
2023-01-07T00:51:19.393Z,26.85
2023-01-07T00:53:46.840Z,28.48
2023-01-07T00:56:15.059Z,27.63
2023-01-07T00:58:42.374Z,28.20
2023-01-07T01:01:09.947Z,27.25
2023-01-07T01:03:37.300Z,28.85
2023-01-07T01:06:05.662Z,28.20
2023-01-07T01:08:34.174Z,28.10
2023-01-07T01:11:05.760Z,27.65
2023-01-07T01:13:32.784Z,28.00
2023-01-07T01:15:59.826Z,27.13
2023-01-07T01:18:27.135Z,27.38
2023-01-07T01:20:54.000Z,26.70
2023-01-07T01:23:20.967Z,27.80
2023-01-07T01:25:49.399Z,25.63
2023-01-07T01:28:16.167Z,28.02
2023-01-07T01:30:42.952Z,26.33
2023-01-07T01:33:09.729Z,26.52
2023-01-07T01:35:40.042Z,27.05
2023-01-07T01:38:07.070Z,26.98
2023-01-07T01:40:36.845Z,26.85
2023-01-07T01:43:05.043Z,27.40
2023-01-07T01:45:32.182Z,27.45
2023-01-07T01:48:04.970Z,27.20
2023-01-07T01:50:35.053Z,26.55
2023-01-07T01:53:05.658Z,26.92
2023-01-07T01:55:36.446Z,25.00
2023-01-07T01:58:08.003Z,25.67
2023-01-07T02:00:36.131Z,24.55
2023-01-07T02:03:06.854Z,24.73
2023-01-07T02:05:40.437Z,25.63
2023-01-07T02:08:07.473Z,24.90
2023-01-07T02:10:34.435Z,25.80
2023-01-07T02:13:23.395Z,24.60
2023-01-07T02:15:56.074Z,23.40
2023-01-07T02:18:40.662Z,23.88
2023-01-07T02:21:22.029Z,23.35
2023-01-07T02:24:22.364Z,23.48
2023-01-07T02:27:13.978Z,23.17
2023-01-07T02:32:35.971Z,23.52
2023-01-07T02:35:12.290Z,22.95
2023-01-07T02:37:50.827Z,22.25
2023-01-07T02:40:24.320Z,21.98
2023-01-07T02:43:03.933Z,22.45
2023-01-07T02:45:35.977Z,20.45
2023-01-07T02:48:08.324Z,22.42
2023-01-07T02:50:35.520Z,22.23
2023-01-07T02:53:02.480Z,23.20
2023-01-07T02:55:39.469Z,23.08
2023-01-07T02:58:35.534Z,24.02
2023-01-07T03:01:34.609Z,24.92
2023-01-07T03:04:20.687Z,25.77
2023-01-07T03:06:59.615Z,26.02
2023-01-07T03:09:37.437Z,26.98
2023-01-07T03:12:13.135Z,26.73
2023-01-07T03:14:45.880Z,26.27
2023-01-07T03:17:18.372Z,26.23
2023-01-07T03:19:52.561Z,27.17
2023-01-07T03:22:22.506Z,26.48
2023-01-07T03:24:53.019Z,25.45
2023-01-07T03:27:22.308Z,27.10
2023-01-07T03:29:50.582Z,25.55
2023-01-07T03:32:24.484Z,25.23
2023-01-07T03:34:53.395Z,26.80
2023-01-07T03:37:22.700Z,25.67
2023-01-07T03:39:52.798Z,24.92
2023-01-07T03:42:22.722Z,25.80
2023-01-07T03:44:49.496Z,25.33
2023-01-07T03:47:16.575Z,25.35
2023-01-07T03:49:43.492Z,25.27
2023-01-07T03:52:11.909Z,24.42
2023-01-07T03:54:38.986Z,25.95
2023-01-07T03:57:05.767Z,25.83
2023-01-07T03:59:32.700Z,25.15
2023-01-07T04:01:59.578Z,24.60
2023-01-07T04:04:26.464Z,24.17
2023-01-07T04:06:53.421Z,22.98
2023-01-07T04:09:21.611Z,23.02
2023-01-07T04:11:48.595Z,22.85
2023-01-07T04:14:15.449Z,24.45
2023-01-07T04:16:42.236Z,22.77
2023-01-07T04:19:09.551Z,23.40
2023-01-07T04:21:36.447Z,22.45
2023-01-07T04:24:03.231Z,22.42
2023-01-07T04:26:31.350Z,22.42
2023-01-07T04:28:58.052Z,22.45
2023-01-07T04:31:24.913Z,22.98
2023-01-07T04:33:51.623Z,23.83
2023-01-07T04:36:18.347Z,22.23
2023-01-07T04:38:45.157Z,22.98
2023-01-07T04:41:11.935Z,23.45
2023-01-07T04:43:40.134Z,22.63
2023-01-07T04:46:07.007Z,22.75
2023-01-07T04:48:33.908Z,23.73
2023-01-07T04:51:01.093Z,23.70
2023-01-07T04:53:27.906Z,23.20
2023-01-07T04:55:54.804Z,22.17
2023-01-07T04:58:22.341Z,23.48
2023-01-07T05:00:50.542Z,21.48
2023-01-07T05:03:17.375Z,21.70
2023-01-07T05:05:45.393Z,21.92
2023-01-07T05:08:12.423Z,23.52
2023-01-07T05:10:39.191Z,22.85
2023-01-07T05:13:07.056Z,20.52
2023-01-07T05:15:34.089Z,21.58
2023-01-07T05:18:02.627Z,21.08
2023-01-07T05:20:29.402Z,21.50
2023-01-07T05:22:56.490Z,20.42
2023-01-07T05:25:23.284Z,20.85
2023-01-07T05:27:50.442Z,20.48
2023-01-07T05:30:17.281Z,20.25
2023-01-07T05:32:44.310Z,20.67
2023-01-07T05:35:12.737Z,19.92
2023-01-07T05:37:39.582Z,19.08
2023-01-07T05:40:07.703Z,19.75
2023-01-07T05:42:34.691Z,19.00
2023-01-07T05:45:01.814Z,18.52
2023-01-07T05:47:28.544Z,18.10
2023-01-07T05:49:55.318Z,18.65
2023-01-07T05:52:23.564Z,17.55
2023-01-07T05:54:50.447Z,17.45
2023-01-07T05:57:17.604Z,17.27
2023-01-07T05:59:44.951Z,17.70
2023-01-07T06:02:11.721Z,16.27
2023-01-07T06:04:38.746Z,17.23
2023-01-07T06:07:06.085Z,17.48
2023-01-07T06:09:34.283Z,17.10
2023-01-07T06:12:01.330Z,16.40
2023-01-07T06:14:28.295Z,16.10
2023-01-07T06:16:55.122Z,16.15
2023-01-07T06:19:22.179Z,15.85
2023-01-07T06:21:49.171Z,15.07
2023-01-07T06:24:15.869Z,15.70
2023-01-07T06:26:44.125Z,15.18
2023-01-07T06:29:11.127Z,15.38
2023-01-07T06:31:38.141Z,15.13
2023-01-07T06:34:04.952Z,14.48
2023-01-07T06:36:31.952Z,14.02
2023-01-07T06:38:59.191Z,14.75
2023-01-07T06:41:26.873Z,14.13
2023-01-07T06:43:55.115Z,14.20
2023-01-07T06:46:22.030Z,12.98
2023-01-07T06:48:49.062Z,13.60
2023-01-07T06:51:16.226Z,12.98
2023-01-07T06:53:42.982Z,12.77
2023-01-07T06:56:09.703Z,13.00
2023-01-07T06:58:37.231Z,12.82
2023-01-07T07:01:07.007Z,13.98
2023-01-07T07:03:34.134Z,13.30
2023-01-07T07:06:01.548Z,12.93
2023-01-07T07:08:28.573Z,12.68
2023-01-07T07:10:55.807Z,12.65
2023-01-07T07:13:22.617Z,12.55
2023-01-07T07:15:49.673Z,12.15
2023-01-07T07:18:18.148Z,11.75
2023-01-07T07:20:46.626Z,12.48
2023-01-07T07:23:13.405Z,12.60
2023-01-07T07:25:43.729Z,12.13
2023-01-07T07:28:10.967Z,11.40
2023-01-07T07:30:46.735Z,11.93
2023-01-07T07:33:15.205Z,11.07
2023-01-07T07:35:44.204Z,10.80
2023-01-07T07:38:10.940Z,10.25
2023-01-07T07:40:37.999Z,10.30
2023-01-07T07:43:10.303Z,9.70
2023-01-07T07:45:39.563Z,10.00
2023-01-07T07:48:07.491Z,10.07
2023-01-07T07:50:34.888Z,9.48
2023-01-07T07:53:03.337Z,9.30
2023-01-07T07:55:30.099Z,9.52
2023-01-07T07:57:57.479Z,8.55
2023-01-07T08:00:24.582Z,8.48
2023-01-07T08:02:51.445Z,8.77
2023-01-07T08:05:18.364Z,8.88
2023-01-07T08:07:45.203Z,8.45
2023-01-07T08:10:13.335Z,7.78
2023-01-07T08:12:40.377Z,8.10
2023-01-07T08:15:08.308Z,7.63
2023-01-07T08:17:35.361Z,8.38
2023-01-07T08:20:02.309Z,8.32
2023-01-07T08:22:28.975Z,7.70
2023-01-07T08:24:55.691Z,7.85
2023-01-07T08:27:23.832Z,7.85
2023-01-07T08:29:50.681Z,7.90
2023-01-07T08:32:17.666Z,7.50
2023-01-07T08:34:44.482Z,7.28
2023-01-07T08:37:11.350Z,6.63
2023-01-07T08:39:38.327Z,7.07
2023-01-07T08:42:05.553Z,6.30
2023-01-07T08:44:33.804Z,6.15
2023-01-07T08:47:00.729Z,6.70
2023-01-07T08:49:27.599Z,6.22
2023-01-07T08:51:54.441Z,6.10
2023-01-07T08:54:22.611Z,5.82
2023-01-07T08:56:49.409Z,6.07
2023-01-07T08:59:16.494Z,5.00
2023-01-07T09:01:44.673Z,5.22
2023-01-07T09:04:11.751Z,5.18
2023-01-07T09:06:39.076Z,4.97
2023-01-07T09:09:06.634Z,5.22
2023-01-07T09:11:37.269Z,4.40
2023-01-07T09:14:04.139Z,5.00
2023-01-07T09:16:30.974Z,4.57
2023-01-07T09:18:59.079Z,4.50
2023-01-07T09:21:25.900Z,4.10
2023-01-07T09:23:53.127Z,3.58
2023-01-07T09:26:19.943Z,3.80
2023-01-07T09:28:47.189Z,3.70
2023-01-07T09:31:14.179Z,3.80
2023-01-07T09:33:41.210Z,3.28
2023-01-07T09:36:09.997Z,3.53
2023-01-07T09:38:37.161Z,3.05
2023-01-07T09:41:04.241Z,2.90
2023-01-07T09:44:00.714Z,2.92
2023-01-07T09:46:23.645Z,2.80
2023-01-07T09:48:54.266Z,3.05
2023-01-07T09:51:27.675Z,2.92
2023-01-07T09:53:57.723Z,2.40
2023-01-07T09:56:28.197Z,2.55
2023-01-07T09:58:56.960Z,2.70
2023-01-07T10:01:31.399Z,3.00
2023-01-07T10:04:22.463Z,3.33
2023-01-07T10:06:59.214Z,2.88
2023-01-07T10:09:35.999Z,2.55
2023-01-07T10:12:12.010Z,2.33
2023-01-07T10:15:01.745Z,3.00
2023-01-07T10:17:44.789Z,2.47
2023-01-07T10:20:22.050Z,2.75
2023-01-07T10:22:54.133Z,2.45
2023-01-07T10:25:25.015Z,2.20
2023-01-07T10:27:57.477Z,2.10
2023-01-07T10:30:26.727Z,2.42
2023-01-07T10:33:00.711Z,2.20
2023-01-07T10:35:29.265Z,1.60
2023-01-07T10:38:02.204Z,2.67
2023-01-07T10:40:40.202Z,2.03
2023-01-07T10:43:18.439Z,2.20
2023-01-07T10:45:56.911Z,1.50
2023-01-07T10:48:40.834Z,1.95
2023-01-07T10:51:18.045Z,1.70
2023-01-07T10:53:57.555Z,1.67
2023-01-07T10:56:29.606Z,1.50
2023-01-07T10:58:56.597Z,1.58
2023-01-07T11:01:27.471Z,1.70
2023-01-07T11:03:56.496Z,1.30
2023-01-07T11:06:34.365Z,1.27
2023-01-07T11:09:04.812Z,1.27
2023-01-07T11:14:53.625Z,1.00
2023-01-07T11:17:31.602Z,1.27
2023-01-07T11:19:58.791Z,0.93
2023-01-07T11:22:31.166Z,1.35
2023-01-07T11:25:01.211Z,0.90
2023-01-07T11:27:31.435Z,0.98
2023-01-07T11:30:02.266Z,1.10
2023-01-07T11:32:31.607Z,1.08
2023-01-07T11:35:01.152Z,0.90
2023-01-07T11:37:34.440Z,1.00
2023-01-07T11:40:16.732Z,1.10
2023-01-07T11:42:48.152Z,0.95
2023-01-07T11:47:47.980Z,0.75
2023-01-07T11:50:23.608Z,0.90
2023-01-07T11:53:01.667Z,1.00
2023-01-07T11:55:30.637Z,1.10
2023-01-07T11:58:27.743Z,0.90
2023-01-07T12:00:46.425Z,0.70
2023-01-07T12:03:14.433Z,0.85
2023-01-07T12:05:44.429Z,1.10
2023-01-07T12:08:20.216Z,0.90
2023-01-07T12:10:55.323Z,0.80
2023-01-07T12:13:24.898Z,0.90
2023-01-07T12:15:54.165Z,0.90
2023-01-07T12:18:51.807Z,0.70
2023-01-07T12:21:32.395Z,0.80
2023-01-07T12:24:31.469Z,0.65
2023-01-07T12:27:10.493Z,0.93
2023-01-07T12:29:49.991Z,1.08
2023-01-07T12:32:32.560Z,0.70
2023-01-07T12:35:14.936Z,0.73
2023-01-07T12:37:46.136Z,0.90
2023-01-07T12:40:30.505Z,0.50
2023-01-07T12:43:04.868Z,0.70
2023-01-07T12:45:43.485Z,0.57
2023-01-07T12:48:19.745Z,0.40
2023-01-07T12:50:50.409Z,0.65
2023-01-07T12:53:27.530Z,0.80
2023-01-07T12:55:59.342Z,0.80
2023-01-07T12:58:43.004Z,0.95
2023-01-07T13:01:19.441Z,1.17
2023-01-07T13:04:05.213Z,0.90
2023-01-07T13:06:43.314Z,1.00
2023-01-07T13:09:49.384Z,1.00
2023-01-07T13:12:41.015Z,1.08
2023-01-07T13:15:23.775Z,0.95
2023-01-07T13:17:54.974Z,1.15
2023-01-07T13:20:37.419Z,1.13
2023-01-07T13:23:05.776Z,1.20
2023-01-07T13:25:51.740Z,1.42
2023-01-07T13:28:44.591Z,1.60
2023-01-07T13:31:32.261Z,1.23
2023-01-07T13:34:10.797Z,1.33
2023-01-07T13:36:47.854Z,1.45
2023-01-07T13:39:38.031Z,1.13
2023-01-07T13:42:20.425Z,1.40
2023-01-07T13:45:01.017Z,1.20
2023-01-07T13:47:38.858Z,1.10
2023-01-07T13:50:17.007Z,1.08
2023-01-07T13:52:43.887Z,1.40
2023-01-07T13:55:33.468Z,1.45
2023-01-07T13:58:00.863Z,1.08
2023-01-07T14:01:08.918Z,1.20
2023-01-07T14:03:41.376Z,1.13
2023-01-07T14:06:37.929Z,1.20
2023-01-07T14:09:23.874Z,1.10
2023-01-07T14:12:31.983Z,1.30
2023-01-07T14:15:22.422Z,1.08
2023-01-07T14:18:01.973Z,1.05
2023-01-07T14:20:43.623Z,1.10
2023-01-07T14:23:25.357Z,1.42
2023-01-07T14:26:11.613Z,1.17
2023-01-07T14:29:06.187Z,1.20
2023-01-07T14:31:33.179Z,1.40
2023-01-07T14:34:03.708Z,1.27
2023-01-07T14:37:03.646Z,1.17
2023-01-07T14:39:33.419Z,1.60
2023-01-07T14:42:48.848Z,1.45
2023-01-07T14:45:54.047Z,1.30
2023-01-07T14:48:32.557Z,1.30
2023-01-07T14:51:28.514Z,1.45
2023-01-07T14:54:09.402Z,1.40
2023-01-07T14:56:51.596Z,1.33
2023-01-07T14:59:37.839Z,1.35
2023-01-07T15:02:46.267Z,1.52
2023-01-07T15:05:58.465Z,1.30
2023-01-07T15:08:29.219Z,1.38
2023-01-07T15:10:58.907Z,1.40
2023-01-07T15:13:30.372Z,1.45
2023-01-07T15:15:57.966Z,1.60
2023-01-07T15:18:25.391Z,1.45
2023-01-07T15:21:04.028Z,1.85
2023-01-07T15:23:41.373Z,1.48
2023-01-07T15:26:16.967Z,1.50
2023-01-07T15:28:50.412Z,1.73
2023-01-07T15:31:24.499Z,1.90
2023-01-07T15:34:12.748Z,1.70
2023-01-07T15:36:42.585Z,1.48
2023-01-07T15:39:18.419Z,1.60
2023-01-07T15:41:46.042Z,1.60
2023-01-07T15:44:20.525Z,2.10
2023-01-07T15:46:47.433Z,2.00
2023-01-07T15:49:20.957Z,1.83
2023-01-07T15:51:49.578Z,2.08
2023-01-07T15:54:30.356Z,2.00
2023-01-07T15:57:01.049Z,2.05
2023-01-07T15:59:34.496Z,2.25
2023-01-07T16:02:06.176Z,2.25
2023-01-07T16:04:35.800Z,1.77
2023-01-07T16:07:03.185Z,2.10
2023-01-07T16:09:30.961Z,2.13
2023-01-07T16:11:59.159Z,2.00
2023-01-07T16:14:26.925Z,2.20
2023-01-07T16:17:14.678Z,2.60
2023-01-07T16:19:41.946Z,2.50
2023-01-07T16:22:13.734Z,2.50
2023-01-07T16:24:48.118Z,2.67
2023-01-07T16:27:16.382Z,2.47
2023-01-07T16:29:50.805Z,2.88
2023-01-07T16:32:20.574Z,2.75
2023-01-07T16:35:01.968Z,2.65
2023-01-07T16:37:31.419Z,2.60
2023-01-07T16:39:58.994Z,3.13
2023-01-07T16:42:28.991Z,3.10
2023-01-07T16:45:01.794Z,2.92
2023-01-07T16:47:32.070Z,3.00
2023-01-07T16:50:19.582Z,3.33
2023-01-07T16:52:51.419Z,3.58
2023-01-07T16:55:51.155Z,2.90
2023-01-07T16:58:27.462Z,3.42
2023-01-07T17:00:56.798Z,3.25
2023-01-07T17:03:26.221Z,3.50
2023-01-07T17:06:02.774Z,3.50
2023-01-07T17:08:30.519Z,3.80
2023-01-07T17:11:21.076Z,3.70
2023-01-07T17:13:50.653Z,2.90
2023-01-07T17:16:31.885Z,3.70
2023-01-07T17:19:24.292Z,3.63
2023-01-07T17:21:55.277Z,3.55
2023-01-07T17:24:45.922Z,3.35
2023-01-07T17:27:26.517Z,2.87
2023-01-07T17:29:53.594Z,3.57
2023-01-07T17:32:21.234Z,3.42
2023-01-07T17:34:49.808Z,3.70
2023-01-07T17:37:19.993Z,3.65
2023-01-07T17:39:47.019Z,3.63
2023-01-07T17:42:20.409Z,3.60
2023-01-07T17:44:47.309Z,3.70
2023-01-07T17:47:16.187Z,3.75
2023-01-07T17:49:46.268Z,3.70
2023-01-07T17:52:14.388Z,4.07
2023-01-07T17:54:44.133Z,4.40
2023-01-07T17:57:12.123Z,3.72
2023-01-07T17:59:40.356Z,3.40
2023-01-07T18:02:18.749Z,3.30
2023-01-07T18:04:46.288Z,3.72
2023-01-07T18:07:20.099Z,4.03
2023-01-07T18:09:47.025Z,4.10
2023-01-07T18:12:17.947Z,4.00
2023-01-07T18:14:44.781Z,3.88
2023-01-07T18:17:11.896Z,3.97
2023-01-07T18:19:38.693Z,3.90
2023-01-07T18:22:05.570Z,3.53
2023-01-07T18:24:33.814Z,3.47
2023-01-07T18:27:00.966Z,3.67
2023-01-07T18:29:27.890Z,3.70
2023-01-07T18:31:54.867Z,3.60
2023-01-07T18:34:21.800Z,4.10
2023-01-07T18:36:48.567Z,3.50
2023-01-07T18:39:19.139Z,3.70
2023-01-07T18:41:48.194Z,3.78
2023-01-07T18:44:15.040Z,3.50
2023-01-07T18:46:42.700Z,3.50
2023-01-07T18:49:10.642Z,3.70
2023-01-07T18:51:37.424Z,2.70
2023-01-07T18:54:04.637Z,3.10
2023-01-07T18:56:31.458Z,3.42
2023-01-07T18:58:59.792Z,3.78
2023-01-07T19:01:26.702Z,3.17
2023-01-07T19:03:54.924Z,2.72
2023-01-07T19:06:22.131Z,2.40
2023-01-07T19:08:52.156Z,3.00
2023-01-07T19:11:18.991Z,3.53
2023-01-07T19:13:47.069Z,2.78
2023-01-07T19:16:15.645Z,2.53
2023-01-07T19:18:42.418Z,2.97
2023-01-07T19:21:12.603Z,2.53
2023-01-07T19:23:39.354Z,2.60
2023-01-07T19:26:12.249Z,2.47
2023-01-07T19:28:39.194Z,2.35
2023-01-07T19:31:08.082Z,2.78
2023-01-07T19:33:36.965Z,2.63
2023-01-07T19:36:08.299Z,2.65
2023-01-07T19:38:38.672Z,2.53
2023-01-07T19:41:08.706Z,2.63
2023-01-07T19:43:35.721Z,2.80
2023-01-07T19:46:03.756Z,2.80
2023-01-07T19:48:30.628Z,2.72
2023-01-07T19:50:59.969Z,2.78
2023-01-07T19:53:28.254Z,3.20
2023-01-07T19:55:59.434Z,3.05
2023-01-07T19:58:29.028Z,2.90
2023-01-07T20:01:01.700Z,2.90
2023-01-07T20:03:30.964Z,3.28
2023-01-07T20:06:02.783Z,3.00
2023-01-07T20:08:32.963Z,3.03
2023-01-07T20:11:00.004Z,3.15
2023-01-07T20:13:27.979Z,2.85
2023-01-07T20:15:55.147Z,3.30
2023-01-07T20:18:22.021Z,3.08
2023-01-07T20:20:55.748Z,2.72
2023-01-07T20:23:24.315Z,2.78
2023-01-07T20:25:51.162Z,3.50
2023-01-07T20:28:18.825Z,2.97
2023-01-07T20:30:45.925Z,2.70
2023-01-07T20:33:12.752Z,3.10
2023-01-07T20:35:39.768Z,2.75
2023-01-07T20:38:06.710Z,2.95
2023-01-07T20:40:37.609Z,3.53
2023-01-07T20:43:04.818Z,3.25
2023-01-07T20:45:32.727Z,3.08
2023-01-07T20:47:59.611Z,3.08
2023-01-07T20:50:26.602Z,2.92
2023-01-07T20:52:53.425Z,2.92
2023-01-07T20:55:20.177Z,2.90
2023-01-07T20:57:48.461Z,3.25
2023-01-07T21:00:16.006Z,3.28
2023-01-07T21:02:43.033Z,2.75
2023-01-07T21:05:10.221Z,2.83
2023-01-07T21:07:37.101Z,2.85
2023-01-07T21:10:04.787Z,2.92
2023-01-07T21:12:32.384Z,3.33
2023-01-07T21:15:02.472Z,3.63
2023-01-07T21:17:29.309Z,3.17
2023-01-07T21:19:56.163Z,2.88
2023-01-07T21:22:23.068Z,2.83
2023-01-07T21:24:49.873Z,3.33
2023-01-07T21:27:16.688Z,2.90
2023-01-07T21:29:44.004Z,3.22
2023-01-07T21:32:12.142Z,2.92
2023-01-07T21:34:39.028Z,3.35
2023-01-07T21:37:05.762Z,3.25
2023-01-07T21:39:32.615Z,3.50
2023-01-07T21:41:59.502Z,3.20
2023-01-07T21:44:26.451Z,3.20
2023-01-07T21:46:53.183Z,3.53
2023-01-07T21:49:21.513Z,3.53
2023-01-07T21:51:50.651Z,3.53
2023-01-07T21:54:17.643Z,3.30
2023-01-07T21:56:44.561Z,4.05
2023-01-07T21:59:11.341Z,3.63
2023-01-07T22:01:39.365Z,3.33
2023-01-07T22:04:07.068Z,3.33
2023-01-07T22:06:36.168Z,3.40
2023-01-07T22:09:06.575Z,4.00
2023-01-07T22:11:35.485Z,3.45
2023-01-07T22:14:04.836Z,3.50
2023-01-07T22:16:33.059Z,3.70
2023-01-07T22:19:00.460Z,3.20
2023-01-07T22:21:27.291Z,3.10
2023-01-07T22:23:55.497Z,3.33
2023-01-07T22:26:22.907Z,3.20
2023-01-07T22:28:53.298Z,3.05
2023-01-07T22:31:22.429Z,2.95
2023-01-07T22:33:50.514Z,3.30
2023-01-07T22:36:20.465Z,3.10
2023-01-07T22:38:48.001Z,3.08
2023-01-07T22:41:16.253Z,3.67
2023-01-07T22:43:43.120Z,3.30
2023-01-07T22:46:15.765Z,3.35
2023-01-07T22:48:42.830Z,2.92
2023-01-07T22:51:15.716Z,3.15
2023-01-07T22:53:42.864Z,3.67
2023-01-07T22:56:10.612Z,2.90
2023-01-07T22:58:38.697Z,2.90
2023-01-07T23:01:12.442Z,3.10
2023-01-07T23:03:40.335Z,2.97
2023-01-07T23:06:08.397Z,3.00
2023-01-07T23:08:35.257Z,2.92
2023-01-07T23:11:02.112Z,3.00
2023-01-07T23:13:28.891Z,2.85
2023-01-07T23:15:59.830Z,2.72
2023-01-07T23:18:26.693Z,2.70
2023-01-07T23:20:55.031Z,2.90
2023-01-07T23:23:21.853Z,2.90
2023-01-07T23:25:50.306Z,3.03
2023-01-07T23:28:18.462Z,3.03
2023-01-07T23:30:46.319Z,2.95
2023-01-07T23:33:17.112Z,2.97
2023-01-07T23:35:44.123Z,3.28
2023-01-07T23:38:11.416Z,2.97
2023-01-07T23:40:38.146Z,2.90
2023-01-07T23:43:04.897Z,3.00
2023-01-07T23:45:31.889Z,3.22
2023-01-07T23:47:59.046Z,2.92
2023-01-07T23:50:30.899Z,3.22
2023-01-07T23:52:58.342Z,3.40
2023-01-07T23:55:25.115Z,3.20
2023-01-07T23:57:51.979Z,3.03
